sensor_id;sensor_type;location;lat;lon;timestamp;P1;durP1;ratioP1;P2;durP2;ratioP2
65234;SDS011;51820;48.374;10.930;2022-09-23T00:01:58;13.80;;;5.82;;
65234;SDS011;51820;48.374;10.930;2022-09-23T00:04:27;10.47;;;5.93;;
65234;SDS011;51820;48.374;10.930;2022-09-23T00:06:56;12.13;;;6.10;;
65234;SDS011;51820;48.374;10.930;2022-09-23T00:09:25;16.08;;;8.05;;
65234;SDS011;51820;48.374;10.930;2022-09-23T00:11:53;15.95;;;8.63;;
65234;SDS011;51820;48.374;10.930;2022-09-23T00:14:22;19.85;;;8.70;;
65234;SDS011;51820;48.374;10.930;2022-09-23T00:16:52;17.67;;;9.80;;
65234;SDS011;51820;48.374;10.930;2022-09-23T00:19:20;15.13;;;8.48;;
65234;SDS011;51820;48.374;10.930;2022-09-23T00:21:49;15.90;;;8.13;;
65234;SDS011;51820;48.374;10.930;2022-09-23T00:24:18;12.55;;;6.97;;
65234;SDS011;51820;48.374;10.930;2022-09-23T00:26:46;14.10;;;6.82;;
65234;SDS011;51820;48.374;10.930;2022-09-23T00:29:15;13.53;;;7.53;;
65234;SDS011;51820;48.374;10.930;2022-09-23T00:31:44;12.68;;;7.10;;
65234;SDS011;51820;48.374;10.930;2022-09-23T00:34:14;14.77;;;7.90;;
65234;SDS011;51820;48.374;10.930;2022-09-23T00:36:43;16.23;;;7.32;;
65234;SDS011;51820;48.374;10.930;2022-09-23T00:39:12;16.20;;;6.82;;
65234;SDS011;51820;48.374;10.930;2022-09-23T00:41:40;14.67;;;7.67;;
65234;SDS011;51820;48.374;10.930;2022-09-23T00:47:11;14.57;;;6.78;;
65234;SDS011;51820;48.374;10.930;2022-09-23T00:49:44;13.45;;;6.10;;
65234;SDS011;51820;48.374;10.930;2022-09-23T00:52:17;11.35;;;5.70;;
65234;SDS011;51820;48.374;10.930;2022-09-23T00:54:47;12.03;;;5.87;;
65234;SDS011;51820;48.374;10.930;2022-09-23T00:57:16;9.63;;;5.15;;
65234;SDS011;51820;48.374;10.930;2022-09-23T00:59:45;10.35;;;4.57;;
65234;SDS011;51820;48.374;10.930;2022-09-23T01:02:16;9.93;;;4.70;;
65234;SDS011;51820;48.374;10.930;2022-09-23T01:04:49;11.90;;;4.53;;
65234;SDS011;51820;48.374;10.930;2022-09-23T01:07:18;8.17;;;4.00;;
65234;SDS011;51820;48.374;10.930;2022-09-23T01:09:47;9.40;;;4.30;;
65234;SDS011;51820;48.374;10.930;2022-09-23T01:12:19;9.52;;;4.38;;
65234;SDS011;51820;48.374;10.930;2022-09-23T01:15:05;8.93;;;4.25;;
65234;SDS011;51820;48.374;10.930;2022-09-23T01:17:39;8.18;;;4.38;;
65234;SDS011;51820;48.374;10.930;2022-09-23T01:20:29;8.07;;;3.87;;
65234;SDS011;51820;48.374;10.930;2022-09-23T01:23:27;9.10;;;3.90;;
65234;SDS011;51820;48.374;10.930;2022-09-23T01:26:20;7.93;;;3.70;;
65234;SDS011;51820;48.374;10.930;2022-09-23T01:29:16;7.65;;;3.85;;
65234;SDS011;51820;48.374;10.930;2022-09-23T01:32:15;7.75;;;3.60;;
65234;SDS011;51820;48.374;10.930;2022-09-23T01:34:50;10.47;;;3.43;;
65234;SDS011;51820;48.374;10.930;2022-09-23T01:37:25;8.50;;;4.22;;
65234;SDS011;51820;48.374;10.930;2022-09-23T01:40:02;7.97;;;4.00;;
65234;SDS011;51820;48.374;10.930;2022-09-23T01:42:36;12.70;;;3.78;;
65234;SDS011;51820;48.374;10.930;2022-09-23T01:45:08;9.50;;;3.53;;
65234;SDS011;51820;48.374;10.930;2022-09-23T01:47:43;7.90;;;3.23;;
65234;SDS011;51820;48.374;10.930;2022-09-23T01:50:17;10.60;;;3.85;;
65234;SDS011;51820;48.374;10.930;2022-09-23T01:53:06;9.27;;;3.70;;
65234;SDS011;51820;48.374;10.930;2022-09-23T01:55:39;9.68;;;3.70;;
65234;SDS011;51820;48.374;10.930;2022-09-23T01:58:13;10.32;;;4.18;;
65234;SDS011;51820;48.374;10.930;2022-09-23T02:00:47;9.33;;;4.40;;
65234;SDS011;51820;48.374;10.930;2022-09-23T02:03:20;16.13;;;5.32;;
65234;SDS011;51820;48.374;10.930;2022-09-23T02:05:53;7.22;;;3.40;;
65234;SDS011;51820;48.374;10.930;2022-09-23T02:08:25;9.40;;;3.55;;
65234;SDS011;51820;48.374;10.930;2022-09-23T02:11:00;7.50;;;3.50;;
65234;SDS011;51820;48.374;10.930;2022-09-23T02:13:35;9.67;;;3.83;;
65234;SDS011;51820;48.374;10.930;2022-09-23T02:16:11;7.80;;;3.75;;
65234;SDS011;51820;48.374;10.930;2022-09-23T02:18:46;9.68;;;4.10;;
65234;SDS011;51820;48.374;10.930;2022-09-23T02:21:18;8.85;;;3.83;;
65234;SDS011;51820;48.374;10.930;2022-09-23T02:23:51;9.00;;;4.20;;
65234;SDS011;51820;48.374;10.930;2022-09-23T02:26:27;7.50;;;3.83;;
65234;SDS011;51820;48.374;10.930;2022-09-23T02:29:00;8.18;;;3.63;;
65234;SDS011;51820;48.374;10.930;2022-09-23T02:31:35;7.53;;;3.35;;
65234;SDS011;51820;48.374;10.930;2022-09-23T02:34:14;8.63;;;4.10;;
65234;SDS011;51820;48.374;10.930;2022-09-23T02:36:49;8.50;;;3.95;;
65234;SDS011;51820;48.374;10.930;2022-09-23T02:39:32;7.77;;;3.93;;
65234;SDS011;51820;48.374;10.930;2022-09-23T02:42:08;8.73;;;3.70;;
65234;SDS011;51820;48.374;10.930;2022-09-23T02:44:41;7.15;;;3.83;;
65234;SDS011;51820;48.374;10.930;2022-09-23T02:47:10;7.78;;;3.88;;
65234;SDS011;51820;48.374;10.930;2022-09-23T02:49:40;9.10;;;3.58;;
65234;SDS011;51820;48.374;10.930;2022-09-23T02:52:08;7.97;;;3.90;;
65234;SDS011;51820;48.374;10.930;2022-09-23T02:54:39;7.60;;;4.00;;
65234;SDS011;51820;48.374;10.930;2022-09-23T02:57:07;8.50;;;4.18;;
65234;SDS011;51820;48.374;10.930;2022-09-23T02:59:36;9.65;;;4.20;;
65234;SDS011;51820;48.374;10.930;2022-09-23T03:05:20;7.37;;;3.83;;
65234;SDS011;51820;48.374;10.930;2022-09-23T03:07:54;8.65;;;4.05;;
65234;SDS011;51820;48.374;10.930;2022-09-23T03:10:39;9.65;;;4.13;;
65234;SDS011;51820;48.374;10.930;2022-09-23T03:13:21;9.20;;;4.00;;
65234;SDS011;51820;48.374;10.930;2022-09-23T03:15:59;13.57;;;4.32;;
65234;SDS011;51820;48.374;10.930;2022-09-23T03:18:36;8.40;;;3.90;;
65234;SDS011;51820;48.374;10.930;2022-09-23T03:21:10;7.82;;;3.75;;
65234;SDS011;51820;48.374;10.930;2022-09-23T03:23:42;10.13;;;4.13;;
65234;SDS011;51820;48.374;10.930;2022-09-23T03:26:13;9.15;;;4.35;;
65234;SDS011;51820;48.374;10.930;2022-09-23T03:28:45;7.95;;;4.07;;
65234;SDS011;51820;48.374;10.930;2022-09-23T03:31:15;10.50;;;4.43;;
65234;SDS011;51820;48.374;10.930;2022-09-23T03:33:54;8.98;;;4.22;;
65234;SDS011;51820;48.374;10.930;2022-09-23T03:36:28;8.93;;;4.47;;
65234;SDS011;51820;48.374;10.930;2022-09-23T03:39:22;8.05;;;4.10;;
65234;SDS011;51820;48.374;10.930;2022-09-23T03:41:57;9.32;;;4.35;;
65234;SDS011;51820;48.374;10.930;2022-09-23T03:44:28;8.37;;;4.37;;
65234;SDS011;51820;48.374;10.930;2022-09-23T03:46:57;9.90;;;4.75;;
65234;SDS011;51820;48.374;10.930;2022-09-23T03:49:26;11.95;;;5.47;;
65234;SDS011;51820;48.374;10.930;2022-09-23T03:52:01;9.43;;;4.90;;
65234;SDS011;51820;48.374;10.930;2022-09-23T03:54:29;9.60;;;4.97;;
65234;SDS011;51820;48.374;10.930;2022-09-23T03:56:59;10.43;;;4.90;;
65234;SDS011;51820;48.374;10.930;2022-09-23T03:59:28;10.13;;;5.18;;
65234;SDS011;51820;48.374;10.930;2022-09-23T04:01:57;9.93;;;4.55;;
65234;SDS011;51820;48.374;10.930;2022-09-23T04:04:27;8.90;;;4.47;;
65234;SDS011;51820;48.374;10.930;2022-09-23T04:07:00;8.82;;;4.15;;
65234;SDS011;51820;48.374;10.930;2022-09-23T04:09:29;8.20;;;4.10;;
65234;SDS011;51820;48.374;10.930;2022-09-23T04:11:58;8.27;;;4.38;;
65234;SDS011;51820;48.374;10.930;2022-09-23T04:14:26;11.10;;;4.88;;
65234;SDS011;51820;48.374;10.930;2022-09-23T04:16:55;10.85;;;4.60;;
65234;SDS011;51820;48.374;10.930;2022-09-23T04:19:24;10.52;;;5.20;;
65234;SDS011;51820;48.374;10.930;2022-09-23T04:21:52;10.90;;;4.43;;
65234;SDS011;51820;48.374;10.930;2022-09-23T04:24:22;11.98;;;4.95;;
65234;SDS011;51820;48.374;10.930;2022-09-23T04:26:51;9.95;;;5.07;;
65234;SDS011;51820;48.374;10.930;2022-09-23T04:29:20;11.32;;;4.82;;
65234;SDS011;51820;48.374;10.930;2022-09-23T04:31:49;9.88;;;4.80;;
65234;SDS011;51820;48.374;10.930;2022-09-23T04:34:18;11.03;;;4.67;;
65234;SDS011;51820;48.374;10.930;2022-09-23T04:36:47;9.88;;;5.65;;
65234;SDS011;51820;48.374;10.930;2022-09-23T04:39:16;11.60;;;5.72;;
65234;SDS011;51820;48.374;10.930;2022-09-23T04:41:46;9.73;;;5.45;;
65234;SDS011;51820;48.374;10.930;2022-09-23T04:44:14;10.10;;;5.15;;
65234;SDS011;51820;48.374;10.930;2022-09-23T04:46:44;9.97;;;5.50;;
65234;SDS011;51820;48.374;10.930;2022-09-23T04:49:14;10.57;;;5.45;;
65234;SDS011;51820;48.374;10.930;2022-09-23T04:51:43;10.75;;;5.55;;
65234;SDS011;51820;48.374;10.930;2022-09-23T04:54:15;11.30;;;5.60;;
65234;SDS011;51820;48.374;10.930;2022-09-23T04:56:43;9.98;;;5.05;;
65234;SDS011;51820;48.374;10.930;2022-09-23T04:59:13;11.27;;;5.53;;
65234;SDS011;51820;48.374;10.930;2022-09-23T05:01:47;10.70;;;5.88;;
65234;SDS011;51820;48.374;10.930;2022-09-23T05:04:24;10.48;;;5.45;;
65234;SDS011;51820;48.374;10.930;2022-09-23T05:06:52;10.25;;;5.50;;
65234;SDS011;51820;48.374;10.930;2022-09-23T05:09:26;10.55;;;6.00;;
65234;SDS011;51820;48.374;10.930;2022-09-23T05:11:54;9.77;;;5.67;;
65234;SDS011;51820;48.374;10.930;2022-09-23T05:14:24;9.60;;;5.47;;
65234;SDS011;51820;48.374;10.930;2022-09-23T05:16:52;10.70;;;5.68;;
65234;SDS011;51820;48.374;10.930;2022-09-23T05:19:20;11.90;;;6.05;;
65234;SDS011;51820;48.374;10.930;2022-09-23T05:21:49;10.88;;;5.97;;
65234;SDS011;51820;48.374;10.930;2022-09-23T05:24:17;12.53;;;5.97;;
65234;SDS011;51820;48.374;10.930;2022-09-23T05:26:45;12.23;;;6.43;;
65234;SDS011;51820;48.374;10.930;2022-09-23T05:29:17;11.10;;;6.28;;
65234;SDS011;51820;48.374;10.930;2022-09-23T05:31:47;11.32;;;6.15;;
65234;SDS011;51820;48.374;10.930;2022-09-23T05:34:15;10.50;;;5.85;;
65234;SDS011;51820;48.374;10.930;2022-09-23T05:36:44;11.33;;;6.60;;
65234;SDS011;51820;48.374;10.930;2022-09-23T05:39:15;13.07;;;6.65;;
65234;SDS011;51820;48.374;10.930;2022-09-23T05:41:44;13.23;;;7.15;;
65234;SDS011;51820;48.374;10.930;2022-09-23T05:44:12;14.45;;;6.95;;
65234;SDS011;51820;48.374;10.930;2022-09-23T05:46:40;12.35;;;6.97;;
65234;SDS011;51820;48.374;10.930;2022-09-23T05:49:10;13.07;;;7.50;;
65234;SDS011;51820;48.374;10.930;2022-09-23T05:51:40;12.60;;;7.00;;
65234;SDS011;51820;48.374;10.930;2022-09-23T05:54:08;12.98;;;6.95;;
65234;SDS011;51820;48.374;10.930;2022-09-23T05:56:40;14.45;;;7.38;;
65234;SDS011;51820;48.374;10.930;2022-09-23T05:59:10;14.90;;;7.57;;
65234;SDS011;51820;48.374;10.930;2022-09-23T06:01:48;13.47;;;7.37;;
65234;SDS011;51820;48.374;10.930;2022-09-23T06:04:50;13.90;;;6.90;;
65234;SDS011;51820;48.374;10.930;2022-09-23T06:07:44;13.10;;;7.03;;
65234;SDS011;51820;48.374;10.930;2022-09-23T06:10:19;16.58;;;6.70;;
65234;SDS011;51820;48.374;10.930;2022-09-23T06:12:48;13.98;;;7.20;;
65234;SDS011;51820;48.374;10.930;2022-09-23T06:15:16;15.03;;;7.57;;
65234;SDS011;51820;48.374;10.930;2022-09-23T06:17:44;11.95;;;7.13;;
65234;SDS011;51820;48.374;10.930;2022-09-23T06:20:17;13.88;;;7.85;;
65234;SDS011;51820;48.374;10.930;2022-09-23T06:22:45;12.98;;;7.63;;
65234;SDS011;51820;48.374;10.930;2022-09-23T06:25:19;13.38;;;8.05;;
65234;SDS011;51820;48.374;10.930;2022-09-23T06:27:53;14.83;;;7.97;;
65234;SDS011;51820;48.374;10.930;2022-09-23T06:30:24;15.43;;;7.75;;
65234;SDS011;51820;48.374;10.930;2022-09-23T06:32:54;16.40;;;8.80;;
65234;SDS011;51820;48.374;10.930;2022-09-23T06:35:25;12.98;;;7.45;;
65234;SDS011;51820;48.374;10.930;2022-09-23T06:37:54;17.05;;;7.80;;
65234;SDS011;51820;48.374;10.930;2022-09-23T06:40:23;14.83;;;8.80;;
65234;SDS011;51820;48.374;10.930;2022-09-23T06:42:55;17.70;;;9.25;;
65234;SDS011;51820;48.374;10.930;2022-09-23T06:45:24;15.05;;;9.00;;
65234;SDS011;51820;48.374;10.930;2022-09-23T06:47:53;17.42;;;9.77;;
65234;SDS011;51820;48.374;10.930;2022-09-23T06:50:25;16.17;;;8.68;;
65234;SDS011;51820;48.374;10.930;2022-09-23T06:52:54;15.60;;;7.87;;
65234;SDS011;51820;48.374;10.930;2022-09-23T06:55:24;13.50;;;7.43;;
65234;SDS011;51820;48.374;10.930;2022-09-23T06:57:53;14.20;;;7.10;;
65234;SDS011;51820;48.374;10.930;2022-09-23T07:00:22;14.45;;;7.57;;
65234;SDS011;51820;48.374;10.930;2022-09-23T07:02:51;14.50;;;7.85;;
65234;SDS011;51820;48.374;10.930;2022-09-23T07:05:21;12.83;;;7.20;;
65234;SDS011;51820;48.374;10.930;2022-09-23T07:07:50;13.85;;;7.15;;
65234;SDS011;51820;48.374;10.930;2022-09-23T07:10:19;14.35;;;7.85;;
65234;SDS011;51820;48.374;10.930;2022-09-23T07:12:48;14.55;;;7.65;;
65234;SDS011;51820;48.374;10.930;2022-09-23T07:15:16;13.05;;;7.18;;
65234;SDS011;51820;48.374;10.930;2022-09-23T07:17:45;13.80;;;6.63;;
65234;SDS011;51820;48.374;10.930;2022-09-23T07:20:14;13.25;;;7.05;;
65234;SDS011;51820;48.374;10.930;2022-09-23T07:22:47;12.73;;;7.30;;
65234;SDS011;51820;48.374;10.930;2022-09-23T07:25:18;12.85;;;6.88;;
65234;SDS011;51820;48.374;10.930;2022-09-23T07:27:48;12.40;;;6.70;;
65234;SDS011;51820;48.374;10.930;2022-09-23T07:30:16;12.27;;;6.23;;
65234;SDS011;51820;48.374;10.930;2022-09-23T07:32:50;13.15;;;5.97;;
65234;SDS011;51820;48.374;10.930;2022-09-23T07:35:19;11.57;;;6.07;;
65234;SDS011;51820;48.374;10.930;2022-09-23T07:37:48;10.80;;;5.43;;
65234;SDS011;51820;48.374;10.930;2022-09-23T07:40:18;11.57;;;5.78;;
65234;SDS011;51820;48.374;10.930;2022-09-23T07:42:50;9.33;;;5.10;;
65234;SDS011;51820;48.374;10.930;2022-09-23T07:45:28;9.32;;;5.30;;
65234;SDS011;51820;48.374;10.930;2022-09-23T07:47:58;10.52;;;5.05;;
65234;SDS011;51820;48.374;10.930;2022-09-23T07:50:27;12.23;;;5.18;;
65234;SDS011;51820;48.374;10.930;2022-09-23T07:52:57;9.35;;;4.50;;
65234;SDS011;51820;48.374;10.930;2022-09-23T07:55:29;10.97;;;4.90;;
65234;SDS011;51820;48.374;10.930;2022-09-23T07:57:58;12.10;;;5.93;;
65234;SDS011;51820;48.374;10.930;2022-09-23T08:00:31;9.07;;;5.13;;
65234;SDS011;51820;48.374;10.930;2022-09-23T08:03:01;9.15;;;5.03;;
65234;SDS011;51820;48.374;10.930;2022-09-23T08:05:30;11.93;;;5.43;;
65234;SDS011;51820;48.374;10.930;2022-09-23T08:07:58;8.97;;;5.00;;
65234;SDS011;51820;48.374;10.930;2022-09-23T08:10:26;9.20;;;5.13;;
65234;SDS011;51820;48.374;10.930;2022-09-23T08:12:56;9.57;;;4.72;;
65234;SDS011;51820;48.374;10.930;2022-09-23T08:15:25;9.68;;;4.88;;
65234;SDS011;51820;48.374;10.930;2022-09-23T08:17:54;8.00;;;4.50;;
65234;SDS011;51820;48.374;10.930;2022-09-23T08:20:25;10.30;;;4.77;;
65234;SDS011;51820;48.374;10.930;2022-09-23T08:23:14;8.50;;;4.07;;
65234;SDS011;51820;48.374;10.930;2022-09-23T08:25:44;8.50;;;4.32;;
65234;SDS011;51820;48.374;10.930;2022-09-23T08:28:17;13.10;;;4.60;;
65234;SDS011;51820;48.374;10.930;2022-09-23T08:30:46;8.88;;;4.40;;
65234;SDS011;51820;48.374;10.930;2022-09-23T08:33:15;8.53;;;4.10;;
65234;SDS011;51820;48.374;10.930;2022-09-23T08:35:48;10.70;;;4.60;;
65234;SDS011;51820;48.374;10.930;2022-09-23T08:38:21;7.93;;;4.40;;
65234;SDS011;51820;48.374;10.930;2022-09-23T08:40:50;11.10;;;4.38;;
65234;SDS011;51820;48.374;10.930;2022-09-23T08:43:24;9.00;;;4.80;;
65234;SDS011;51820;48.374;10.930;2022-09-23T08:45:55;9.53;;;4.70;;
65234;SDS011;51820;48.374;10.930;2022-09-23T08:48:27;8.15;;;4.30;;
65234;SDS011;51820;48.374;10.930;2022-09-23T08:50:58;9.73;;;4.75;;
65234;SDS011;51820;48.374;10.930;2022-09-23T08:53:31;7.57;;;4.20;;
65234;SDS011;51820;48.374;10.930;2022-09-23T08:56:03;10.00;;;4.28;;
65234;SDS011;51820;48.374;10.930;2022-09-23T08:58:38;8.93;;;4.33;;
65234;SDS011;51820;48.374;10.930;2022-09-23T09:01:24;9.68;;;4.60;;
65234;SDS011;51820;48.374;10.930;2022-09-23T09:04:36;11.52;;;5.10;;
65234;SDS011;51820;48.374;10.930;2022-09-23T09:07:17;13.45;;;5.18;;
65234;SDS011;51820;48.374;10.930;2022-09-23T09:10:03;15.55;;;5.75;;
65234;SDS011;51820;48.374;10.930;2022-09-23T09:12:38;8.67;;;4.73;;
65234;SDS011;51820;48.374;10.930;2022-09-23T09:15:12;11.35;;;5.00;;
65234;SDS011;51820;48.374;10.930;2022-09-23T09:17:44;13.27;;;5.80;;
65234;SDS011;51820;48.374;10.930;2022-09-23T09:20:20;12.85;;;5.10;;
65234;SDS011;51820;48.374;10.930;2022-09-23T09:22:51;9.18;;;5.45;;
65234;SDS011;51820;48.374;10.930;2022-09-23T09:25:24;9.07;;;5.03;;
65234;SDS011;51820;48.374;10.930;2022-09-23T09:28:14;10.73;;;5.15;;
65234;SDS011;51820;48.374;10.930;2022-09-23T09:30:49;8.80;;;5.25;;
65234;SDS011;51820;48.374;10.930;2022-09-23T09:33:23;8.77;;;5.15;;
65234;SDS011;51820;48.374;10.930;2022-09-23T09:35:58;12.98;;;5.47;;
65234;SDS011;51820;48.374;10.930;2022-09-23T09:38:34;9.03;;;5.63;;
65234;SDS011;51820;48.374;10.930;2022-09-23T09:41:08;12.55;;;5.72;;
65234;SDS011;51820;48.374;10.930;2022-09-23T09:43:39;11.40;;;5.20;;
65234;SDS011;51820;48.374;10.930;2022-09-23T09:49:54;8.70;;;4.60;;
65234;SDS011;51820;48.374;10.930;2022-09-23T09:52:40;9.13;;;4.40;;
65234;SDS011;51820;48.374;10.930;2022-09-23T10:30:25;9.37;;;4.00;;
65234;SDS011;51820;48.374;10.930;2022-09-23T10:33:37;8.13;;;3.65;;
65234;SDS011;51820;48.374;10.930;2022-09-23T10:37:02;9.30;;;3.90;;
65234;SDS011;51820;48.374;10.930;2022-09-23T10:39:57;8.23;;;3.10;;
65234;SDS011;51820;48.374;10.930;2022-09-23T10:43:39;8.27;;;3.58;;
65234;SDS011;51820;48.374;10.930;2022-09-23T10:54:49;7.97;;;3.03;;
65234;SDS011;51820;48.374;10.930;2022-09-23T10:57:27;8.60;;;3.10;;
65234;SDS011;51820;48.374;10.930;2022-09-23T11:00:12;6.43;;;3.15;;
65234;SDS011;51820;48.374;10.930;2022-09-23T11:03:00;6.63;;;2.87;;
65234;SDS011;51820;48.374;10.930;2022-09-23T11:05:37;7.35;;;2.63;;
65234;SDS011;51820;48.374;10.930;2022-09-23T11:08:19;5.80;;;2.70;;
65234;SDS011;51820;48.374;10.930;2022-09-23T11:11:12;6.95;;;2.60;;
65234;SDS011;51820;48.374;10.930;2022-09-23T11:14:00;5.30;;;2.50;;
65234;SDS011;51820;48.374;10.930;2022-09-23T11:16:49;6.97;;;2.70;;
65234;SDS011;51820;48.374;10.930;2022-09-23T11:22:35;6.22;;;2.60;;
65234;SDS011;51820;48.374;10.930;2022-09-23T11:25:21;6.43;;;2.28;;
65234;SDS011;51820;48.374;10.930;2022-09-23T11:28:12;9.10;;;2.50;;
65234;SDS011;51820;48.374;10.930;2022-09-23T11:31:00;6.10;;;2.33;;
65234;SDS011;51820;48.374;10.930;2022-09-23T11:33:44;5.78;;;2.17;;
65234;SDS011;51820;48.374;10.930;2022-09-23T11:36:23;6.50;;;2.20;;
65234;SDS011;51820;48.374;10.930;2022-09-23T11:38:58;5.90;;;2.05;;
65234;SDS011;51820;48.374;10.930;2022-09-23T11:41:35;6.07;;;2.28;;
65234;SDS011;51820;48.374;10.930;2022-09-23T11:44:25;6.73;;;1.97;;
65234;SDS011;51820;48.374;10.930;2022-09-23T11:47:00;6.95;;;2.40;;
65234;SDS011;51820;48.374;10.930;2022-09-23T11:49:39;6.80;;;2.58;;
65234;SDS011;51820;48.374;10.930;2022-09-23T11:52:13;10.43;;;2.60;;
65234;SDS011;51820;48.374;10.930;2022-09-23T11:54:48;7.25;;;3.00;;
65234;SDS011;51820;48.374;10.930;2022-09-23T11:57:26;7.43;;;3.00;;
65234;SDS011;51820;48.374;10.930;2022-09-23T12:00:20;7.30;;;3.20;;
65234;SDS011;51820;48.374;10.930;2022-09-23T12:02:58;7.18;;;3.17;;
65234;SDS011;51820;48.374;10.930;2022-09-23T12:05:36;6.22;;;2.92;;
65234;SDS011;51820;48.374;10.930;2022-09-23T12:08:09;6.57;;;3.55;;
65234;SDS011;51820;48.374;10.930;2022-09-23T12:10:49;7.57;;;3.73;;
65234;SDS011;51820;48.374;10.930;2022-09-23T12:13:20;10.68;;;3.83;;
65234;SDS011;51820;48.374;10.930;2022-09-23T12:16:00;6.95;;;3.58;;
65234;SDS011;51820;48.374;10.930;2022-09-23T12:18:46;6.75;;;3.17;;
65234;SDS011;51820;48.374;10.930;2022-09-23T12:21:45;6.03;;;3.13;;
65234;SDS011;51820;48.374;10.930;2022-09-23T12:24:25;6.33;;;3.10;;
65234;SDS011;51820;48.374;10.930;2022-09-23T12:27:19;10.57;;;3.97;;
65234;SDS011;51820;48.374;10.930;2022-09-23T12:30:11;6.22;;;2.92;;
65234;SDS011;51820;48.374;10.930;2022-09-23T12:35:47;9.13;;;3.83;;
65234;SDS011;51820;48.374;10.930;2022-09-23T12:38:20;15.80;;;3.83;;
65234;SDS011;51820;48.374;10.930;2022-09-23T12:40:52;9.65;;;3.67;;
65234;SDS011;51820;48.374;10.930;2022-09-23T12:43:26;9.20;;;3.75;;
65234;SDS011;51820;48.374;10.930;2022-09-23T12:46:16;6.63;;;3.30;;
65234;SDS011;51820;48.374;10.930;2022-09-23T12:49:23;10.90;;;3.80;;
65234;SDS011;51820;48.374;10.930;2022-09-23T12:57:59;8.10;;;3.30;;
65234;SDS011;51820;48.374;10.930;2022-09-23T13:01:05;6.43;;;3.28;;
65234;SDS011;51820;48.374;10.930;2022-09-23T13:03:41;6.30;;;3.42;;
65234;SDS011;51820;48.374;10.930;2022-09-23T13:06:38;7.77;;;2.97;;
65234;SDS011;51820;48.374;10.930;2022-09-23T13:09:09;8.25;;;3.58;;
65234;SDS011;51820;48.374;10.930;2022-09-23T13:11:41;9.50;;;3.38;;
65234;SDS011;51820;48.374;10.930;2022-09-23T13:14:14;6.93;;;2.90;;
65234;SDS011;51820;48.374;10.930;2022-09-23T13:16:52;7.53;;;3.33;;
65234;SDS011;51820;48.374;10.930;2022-09-23T13:19:42;9.60;;;3.53;;
65234;SDS011;51820;48.374;10.930;2022-09-23T13:22:20;10.30;;;3.60;;
65234;SDS011;51820;48.374;10.930;2022-09-23T13:25:15;6.97;;;2.88;;
65234;SDS011;51820;48.374;10.930;2022-09-23T13:27:46;10.68;;;3.28;;
65234;SDS011;51820;48.374;10.930;2022-09-23T13:30:19;7.85;;;3.10;;
65234;SDS011;51820;48.374;10.930;2022-09-23T13:32:53;8.00;;;3.20;;
65234;SDS011;51820;48.374;10.930;2022-09-23T13:35:31;10.20;;;3.35;;
65234;SDS011;51820;48.374;10.930;2022-09-23T13:38:09;6.35;;;3.15;;
65234;SDS011;51820;48.374;10.930;2022-09-23T13:40:38;6.90;;;3.05;;
65234;SDS011;51820;48.374;10.930;2022-09-23T13:43:08;9.30;;;3.05;;
65234;SDS011;51820;48.374;10.930;2022-09-23T13:45:49;11.13;;;3.33;;
65234;SDS011;51820;48.374;10.930;2022-09-23T13:48:18;9.55;;;4.18;;
65234;SDS011;51820;48.374;10.930;2022-09-23T13:50:50;7.05;;;3.42;;
65234;SDS011;51820;48.374;10.930;2022-09-23T13:53:22;7.97;;;2.95;;
65234;SDS011;51820;48.374;10.930;2022-09-23T13:56:00;7.95;;;3.13;;
65234;SDS011;51820;48.374;10.930;2022-09-23T13:58:30;8.93;;;3.30;;
65234;SDS011;51820;48.374;10.930;2022-09-23T14:00:59;9.27;;;3.60;;
65234;SDS011;51820;48.374;10.930;2022-09-23T14:03:28;7.15;;;3.03;;
65234;SDS011;51820;48.374;10.930;2022-09-23T14:06:03;12.32;;;3.80;;
65234;SDS011;51820;48.374;10.930;2022-09-23T14:08:37;8.40;;;3.47;;
65234;SDS011;51820;48.374;10.930;2022-09-23T14:11:06;9.47;;;3.60;;
65234;SDS011;51820;48.374;10.930;2022-09-23T14:13:36;8.18;;;3.22;;
65234;SDS011;51820;48.374;10.930;2022-09-23T14:16:08;11.00;;;3.50;;
65234;SDS011;51820;48.374;10.930;2022-09-23T14:18:42;8.98;;;3.28;;
65234;SDS011;51820;48.374;10.930;2022-09-23T14:21:25;6.63;;;2.83;;
65234;SDS011;51820;48.374;10.930;2022-09-23T14:23:55;7.83;;;3.20;;
65234;SDS011;51820;48.374;10.930;2022-09-23T14:26:31;8.32;;;3.25;;
65234;SDS011;51820;48.374;10.930;2022-09-23T14:29:00;6.95;;;3.20;;
65234;SDS011;51820;48.374;10.930;2022-09-23T14:31:28;8.88;;;3.22;;
65234;SDS011;51820;48.374;10.930;2022-09-23T14:33:58;9.73;;;3.20;;
65234;SDS011;51820;48.374;10.930;2022-09-23T14:36:26;12.53;;;2.77;;
65234;SDS011;51820;48.374;10.930;2022-09-23T14:39:13;9.63;;;3.10;;
65234;SDS011;51820;48.374;10.930;2022-09-23T14:41:43;6.78;;;2.70;;
65234;SDS011;51820;48.374;10.930;2022-09-23T14:44:16;6.40;;;2.75;;
65234;SDS011;51820;48.374;10.930;2022-09-23T14:46:50;6.38;;;3.00;;
65234;SDS011;51820;48.374;10.930;2022-09-23T14:49:24;8.20;;;2.50;;
65234;SDS011;51820;48.374;10.930;2022-09-23T14:51:54;9.57;;;3.25;;
65234;SDS011;51820;48.374;10.930;2022-09-23T14:54:30;9.30;;;3.90;;
65234;SDS011;51820;48.374;10.930;2022-09-23T14:57:01;16.65;;;8.60;;
65234;SDS011;51820;48.374;10.930;2022-09-23T14:59:47;6.47;;;3.00;;
65234;SDS011;51820;48.374;10.930;2022-09-23T15:02:29;8.97;;;3.27;;
65234;SDS011;51820;48.374;10.930;2022-09-23T15:08:05;7.57;;;2.88;;
65234;SDS011;51820;48.374;10.930;2022-09-23T15:10:37;8.07;;;3.20;;
65234;SDS011;51820;48.374;10.930;2022-09-23T15:13:07;9.10;;;3.00;;
65234;SDS011;51820;48.374;10.930;2022-09-23T15:15:39;8.37;;;2.77;;
65234;SDS011;51820;48.374;10.930;2022-09-23T15:18:11;8.15;;;2.88;;
65234;SDS011;51820;48.374;10.930;2022-09-23T15:20:47;8.20;;;2.95;;
65234;SDS011;51820;48.374;10.930;2022-09-23T15:23:30;8.77;;;3.25;;
65234;SDS011;51820;48.374;10.930;2022-09-23T15:26:02;8.23;;;2.60;;
65234;SDS011;51820;48.374;10.930;2022-09-23T15:28:32;7.03;;;2.67;;
65234;SDS011;51820;48.374;10.930;2022-09-23T15:31:00;9.68;;;3.60;;
65234;SDS011;51820;48.374;10.930;2022-09-23T15:33:31;5.15;;;2.40;;
65234;SDS011;51820;48.374;10.930;2022-09-23T15:36:00;9.10;;;2.85;;
65234;SDS011;51820;48.374;10.930;2022-09-23T15:38:30;7.13;;;2.50;;
65234;SDS011;51820;48.374;10.930;2022-09-23T15:40:59;5.87;;;2.63;;
65234;SDS011;51820;48.374;10.930;2022-09-23T15:43:30;6.30;;;2.85;;
65234;SDS011;51820;48.374;10.930;2022-09-23T15:46:02;8.65;;;2.83;;
65234;SDS011;51820;48.374;10.930;2022-09-23T15:48:34;6.05;;;2.55;;
65234;SDS011;51820;48.374;10.930;2022-09-23T15:51:05;6.38;;;2.50;;
65234;SDS011;51820;48.374;10.930;2022-09-23T15:53:40;7.27;;;3.03;;
65234;SDS011;51820;48.374;10.930;2022-09-23T15:56:09;7.80;;;2.63;;
65234;SDS011;51820;48.374;10.930;2022-09-23T15:58:40;8.35;;;3.10;;
65234;SDS011;51820;48.374;10.930;2022-09-23T16:04:15;7.53;;;2.70;;
65234;SDS011;51820;48.374;10.930;2022-09-23T16:07:25;7.40;;;2.97;;
65234;SDS011;51820;48.374;10.930;2022-09-23T16:10:05;6.45;;;2.90;;
65234;SDS011;51820;48.374;10.930;2022-09-23T16:12:51;6.82;;;2.70;;
65234;SDS011;51820;48.374;10.930;2022-09-23T16:15:26;7.03;;;2.80;;
65234;SDS011;51820;48.374;10.930;2022-09-23T16:25:01;10.43;;;2.97;;
65234;SDS011;51820;48.374;10.930;2022-09-23T16:27:31;7.93;;;3.00;;
65234;SDS011;51820;48.374;10.930;2022-09-23T16:30:04;6.90;;;2.65;;
65234;SDS011;51820;48.374;10.930;2022-09-23T16:32:35;10.35;;;2.97;;